Time;durP1;ratioP1;P1;durP2;ratioP2;P2;SDS_P1;SDS_P2;PMS_P1;PMS_P2;Temp;Humidity;BMP_temperature;BMP_pressure;BME280_temperature;BME280_humidity;BME280_pressure;Samples;Min_cycle;Max_cycle;Signal;HPM_P1;HPM_P2
2023/06/04 00:01:18;;;;;;;9.68;5.43;;;;;;;18.61;50.79;95558.03;5014426;28;20295;-88
2023/06/04 00:03:46;;;;;;;7.10;5.20;;;;;;;18.60;51.12;95553.84;5017870;28;20198;-88
2023/06/04 00:06:14;;;;;;;7.43;5.15;;;;;;;18.79;50.56;95552.69;5032749;28;20252;-88
2023/06/04 00:08:40;;;;;;;6.38;4.90;;;;;;;18.75;50.56;95554.16;5035510;28;20609;-90
2023/06/04 00:11:08;;;;;;;5.13;4.38;;;;;;;18.71;50.00;95555.63;5017498;28;20788;-89
2023/06/04 00:13:35;;;;;;;8.45;4.50;;;;;;;18.56;49.68;95544.84;5017383;28;20202;-89
2023/06/04 00:16:01;;;;;;;4.82;4.00;;;;;;;18.61;49.55;95556.22;5019609;28;20583;-89
2023/06/04 00:18:28;;;;;;;4.90;4.38;;;;;;;18.50;48.99;95543.13;5038184;28;20222;-89
2023/06/04 00:20:54;;;;;;;7.53;4.20;;;;;;;18.44;49.03;95551.88;5034239;28;20206;-89
2023/06/04 00:23:20;;;;;;;4.15;3.47;;;;;;;18.44;48.42;95544.06;5038783;28;20202;-89
2023/06/04 00:25:47;;;;;;;6.97;4.10;;;;;;;18.38;48.06;95544.94;5025289;28;20368;-88
2023/06/04 00:28:15;;;;;;;4.03;3.63;;;;;;;18.42;48.00;95546.88;5018504;28;20223;-88
2023/06/04 00:30:43;;;;;;;5.85;3.85;;;;;;;18.45;47.88;95546.44;5018300;28;20207;-89
2023/06/04 00:33:10;;;;;;;3.90;3.50;;;;;;;18.39;47.88;95552.53;5018983;28;20265;-89
2023/06/04 00:35:37;;;;;;;4.75;4.25;;;;;;;18.37;47.51;95546.75;5018304;28;20199;-89
2023/06/04 00:38:03;;;;;;;6.85;3.88;;;;;;;18.41;47.85;95544.50;5019296;28;20219;-90
2023/06/04 00:40:30;;;;;;;4.38;3.30;;;;;;;18.38;47.78;95544.94;5033361;28;20285;-89
2023/06/04 00:42:56;;;;;;;4.43;3.95;;;;;;;18.40;47.61;95545.53;5041405;28;20202;-89
2023/06/04 00:45:25;;;;;;;5.78;3.78;;;;;;;18.38;47.76;95543.13;5039766;28;20198;-88
2023/06/04 00:47:53;;;;;;;3.72;3.42;;;;;;;18.29;47.49;95553.09;5029418;28;20230;-88
2023/06/04 00:50:21;;;;;;;4.45;3.60;;;;;;;18.35;47.73;95542.78;5024104;28;20202;-89
2023/06/04 00:52:48;;;;;;;5.45;4.20;;;;;;;18.39;47.09;95539.50;5037456;28;20191;-89
2023/06/04 00:55:18;;;;;;;4.53;3.80;;;;;;;18.40;46.54;95543.69;5016916;28;20191;-89
2023/06/04 00:57:45;;;;;;;5.60;3.10;;;;;;;18.28;47.05;95551.50;5017876;28;20219;-89
2023/06/04 01:00:15;;;;;;;3.90;3.10;;;;;;;18.24;47.12;95552.19;5017398;28;20203;-88
2023/06/04 01:02:50;;;;;;;7.10;3.42;;;;;;;18.23;46.48;95548.00;5017288;28;20777;-89
2023/06/04 01:05:28;;;;;;;4.32;3.70;;;;;;;18.35;46.92;95548.00;5033109;28;20213;-88
2023/06/04 01:07:56;;;;;;;4.97;3.45;;;;;;;18.28;46.42;95545.50;5036792;28;20248;-89
2023/06/04 01:10:23;;;;;;;5.72;3.13;;;;;;;18.32;46.45;95545.84;5036962;28;20197;-89
2023/06/04 01:12:50;;;;;;;3.42;3.03;;;;;;;18.21;46.30;95542.22;5037653;28;20201;-88
2023/06/04 01:15:16;;;;;;;3.75;2.90;;;;;;;18.18;46.64;95547.88;5036683;28;20210;-90
2023/06/04 01:17:51;;;;;;;4.97;3.20;;;;;;;18.24;46.51;95553.00;5036793;28;20234;-89
2023/06/04 01:20:26;;;;;;;7.10;4.07;;;;;;;18.34;46.57;95544.59;5027045;28;20599;-89
2023/06/04 01:23:27;;;;;;;3.85;3.50;;;;;;;18.33;46.71;95550.81;5016881;28;20202;-89
2023/06/04 01:25:54;;;;;;;3.55;3.20;;;;;;;18.31;47.02;95555.47;5016527;28;20206;-88
2023/06/04 01:28:21;;;;;;;5.70;3.65;;;;;;;18.19;46.84;95552.84;5011263;28;20594;-88
2023/06/04 01:30:51;;;;;;;4.00;3.20;;;;;;;18.09;47.60;95550.00;5015463;28;20257;-89
2023/06/04 01:33:20;;;;;;;5.68;3.10;;;;;;;18.04;46.99;95554.31;5018262;28;20567;-89
2023/06/04 01:35:49;;;;;;;4.10;3.30;;;;;;;17.89;47.27;95547.72;5026765;28;20261;-89
2023/06/04 01:38:18;;;;;;;5.22;3.17;;;;;;;17.93;47.43;95548.84;5035674;28;20275;-89
2023/06/04 01:40:45;;;;;;;6.38;3.35;;;;;;;17.94;46.90;95542.59;5017728;28;20209;-89
2023/06/04 01:43:11;;;;;;;5.28;2.85;;;;;;;17.95;47.42;95552.00;5017629;28;20210;-88
2023/06/04 01:45:38;;;;;;;5.93;2.90;;;;;;;17.99;47.54;95559.38;5017615;28;20213;-89
2023/06/04 01:48:06;;;;;;;6.13;3.30;;;;;;;17.94;47.38;95560.84;5017556;28;20221;-88
2023/06/04 01:50:36;;;;;;;3.65;3.30;;;;;;;17.86;47.68;95557.78;5026786;28;20252;-88
2023/06/04 01:53:03;;;;;;;3.35;3.05;;;;;;;17.70;47.97;95554.00;5054248;28;20202;-89
2023/06/04 01:55:33;;;;;;;3.92;3.10;;;;;;;17.64;48.77;95562.69;5056863;28;20581;-89
2023/06/04 01:58:01;;;;;;;4.25;2.90;;;;;;;17.72;48.44;95564.16;5029426;28;20246;-89
2023/06/04 02:00:28;;;;;;;5.00;3.40;;;;;;;17.71;48.63;95563.38;5035676;28;20201;-90
2023/06/04 02:02:55;;;;;;;5.30;3.10;;;;;;;17.73;48.88;95571.75;5037010;28;20289;-87
2023/06/04 02:05:22;;;;;;;4.45;3.38;;;;;;;17.80;49.05;95574.28;5035304;28;20198;-90
2023/06/04 02:07:51;;;;;;;5.10;3.00;;;;;;;17.80;50.16;95574.28;5036541;28;20226;-90
2023/06/04 02:13:42;;;;;;;5.65;3.30;;;;;;;17.57;50.57;95578.34;5028773;28;20282;-88
2023/06/04 02:16:10;;;;;;;4.63;3.20;;;;;;;17.59;50.42;95578.94;5035637;28;20214;-87
2023/06/04 02:18:37;;;;;;;3.65;3.28;;;;;;;17.60;50.62;95577.13;5019048;28;20218;-87
2023/06/04 02:21:04;;;;;;;5.63;3.35;;;;;;;17.52;50.83;95570.41;5034182;28;20201;-88
2023/06/04 02:23:32;;;;;;;5.40;3.60;;;;;;;17.40;51.17;95571.38;5029814;28;20846;-88
2023/06/04 02:25:58;;;;;;;3.92;3.30;;;;;;;17.25;51.83;95572.53;5035826;28;20234;-88
2023/06/04 02:28:26;;;;;;;5.63;3.60;;;;;;;17.17;51.61;95570.22;5032538;28;20249;-89
2023/06/04 02:30:56;;;;;;;4.60;3.58;;;;;;;17.16;51.59;95578.25;5017214;28;20210;-89
2023/06/04 02:33:23;;;;;;;4.05;3.30;;;;;;;17.26;51.34;95571.53;5037477;28;20567;-89
2023/06/04 02:35:49;;;;;;;5.40;3.50;;;;;;;17.27;51.64;95572.31;5037556;28;20198;-90
2023/06/04 02:38:19;;;;;;;5.93;3.38;;;;;;;17.36;51.51;95575.41;5037469;28;20253;-88
2023/06/04 02:40:47;;;;;;;3.72;3.40;;;;;;;17.49;51.08;95580.47;5036468;28;20198;-89
2023/06/04 02:43:14;;;;;;;4.32;3.90;;;;;;;17.47;51.79;95582.50;5037141;28;20289;-88
2023/06/04 02:45:41;;;;;;;7.18;4.15;;;;;;;17.48;51.61;95579.69;5026805;28;20232;-89
2023/06/04 02:48:07;;;;;;;5.35;4.30;;;;;;;17.55;51.48;95584.78;5017479;28;20302;-90
2023/06/04 02:50:36;;;;;;;4.63;3.97;;;;;;;17.51;51.92;95586.25;5027206;28;20202;-87
2023/06/04 02:53:02;;;;;;;5.60;3.90;;;;;;;17.46;51.78;95576.50;5054618;28;20209;-89
2023/06/04 02:55:29;;;;;;;5.10;4.65;;;;;;;17.46;51.84;95575.72;5056156;28;20209;-87
2023/06/04 02:58:00;;;;;;;5.35;3.47;;;;;;;17.37;52.69;95579.59;5057066;28;20227;-88
2023/06/04 03:00:30;;;;;;;4.57;4.05;;;;;;;17.36;52.69;95578.81;5026582;28;20195;-87
2023/06/04 03:03:01;;;;;;;4.45;4.05;;;;;;;17.29;52.92;95585.91;5017538;28;20205;-87
2023/06/04 03:05:27;;;;;;;5.15;4.38;;;;;;;17.25;52.49;95582.16;5034765;28;20213;-87
2023/06/04 03:07:56;;;;;;;5.80;4.50;;;;;;;17.15;52.74;95590.47;5036409;28;20233;-87
2023/06/04 03:10:22;;;;;;;5.65;5.03;;;;;;;17.16;52.47;95580.84;5022550;28;20211;-87
2023/06/04 03:12:49;;;;;;;5.20;4.70;;;;;;;17.13;52.36;95587.28;5017189;28;20816;-88
2023/06/04 03:15:17;;;;;;;5.40;4.80;;;;;;;17.09;52.72;95586.13;5019286;28;20209;-87
2023/06/04 03:17:44;;;;;;;6.10;4.45;;;;;;;17.09;52.64;95588.75;5021977;28;20986;-89
2023/06/04 03:20:11;;;;;;;5.30;4.38;;;;;;;17.04;53.51;95586.00;5030797;28;20222;-89
2023/06/04 03:22:38;;;;;;;5.63;4.72;;;;;;;17.02;53.08;95595.81;5041188;28;20248;-90
2023/06/04 03:25:08;;;;;;;5.65;4.65;;;;;;;16.92;53.29;95596.31;5050647;28;20205;-89
2023/06/04 03:27:35;;;;;;;5.35;4.28;;;;;;;17.00;53.16;95602.22;5055613;28;20230;-90
2023/06/04 03:30:02;;;;;;;5.18;4.68;;;;;;;16.93;53.64;95595.28;5031252;28;20209;-87
2023/06/04 03:32:30;;;;;;;4.97;4.47;;;;;;;16.82;53.87;95611.59;5034149;28;20206;-87
2023/06/04 03:34:57;;;;;;;7.88;4.57;;;;;;;16.86;53.68;95607.56;5033627;28;20290;-88
2023/06/04 03:37:23;;;;;;;6.57;4.47;;;;;;;16.97;53.08;95605.25;5033277;28;20980;-87
2023/06/04 03:39:50;;;;;;;4.85;4.35;;;;;;;17.06;53.68;95615.19;5033004;28;20222;-88
2023/06/04 03:42:16;;;;;;;5.35;4.25;;;;;;;16.95;53.84;95612.47;5033448;28;20202;-87
2023/06/04 03:44:42;;;;;;;5.75;4.63;;;;;;;16.92;54.05;95616.34;5033846;28;20228;-88
2023/06/04 03:47:09;;;;;;;5.68;4.63;;;;;;;16.91;54.07;95619.94;5033875;28;20221;-87
2023/06/04 03:49:37;;;;;;;7.85;5.35;;;;;;;16.90;54.22;95620.94;5026811;28;22029;-88
2023/06/04 03:52:04;;;;;;;6.40;5.38;;;;;;;16.82;54.34;95624.63;5032033;28;20194;-87
2023/06/04 03:54:30;;;;;;;6.47;5.00;;;;;;;16.66;54.97;95619.97;5053985;28;20666;-87
2023/06/04 03:56:57;;;;;;;6.28;4.72;;;;;;;16.53;55.98;95620.84;5053521;28;20232;-86
2023/06/04 03:59:23;;;;;;;5.47;4.70;;;;;;;16.66;55.70;95617.38;5042845;28;20215;-87
2023/06/04 04:01:49;;;;;;;5.60;4.63;;;;;;;16.73;55.63;95612.91;5022050;28;20202;-88
2023/06/04 04:04:16;;;;;;;5.28;4.78;;;;;;;16.62;55.95;95618.75;5033426;28;20621;-87
2023/06/04 04:06:44;;;;;;;5.25;4.75;;;;;;;16.70;55.89;95617.75;5032245;28;20226;-86
2023/06/04 04:09:10;;;;;;;4.47;4.10;;;;;;;16.72;55.45;95613.13;5009014;28;20226;-87
2023/06/04 04:11:36;;;;;;;7.90;4.47;;;;;;;16.73;55.57;95619.91;5012139;28;20195;-86
2023/06/04 04:14:03;;;;;;;4.82;4.43;;;;;;;16.67;56.50;95615.56;5013243;28;20206;-87
2023/06/04 04:16:29;;;;;;;6.55;4.10;;;;;;;16.70;56.76;95618.53;5013212;28;20199;-87
2023/06/04 04:18:56;;;;;;;4.95;4.45;;;;;;;16.76;56.17;95617.66;5013053;28;20229;-87
2023/06/04 04:21:23;;;;;;;5.88;4.05;;;;;;;16.75;55.69;95616.06;5046992;28;20194;-87
2023/06/04 04:23:51;;;;;;;6.43;4.10;;;;;;;16.79;55.92;95627.63;5048469;28;20194;-87
2023/06/04 04:26:18;;;;;;;4.20;3.80;;;;;;;16.86;55.34;95627.59;5031455;28;20226;-87
2023/06/04 04:28:47;;;;;;;4.07;3.65;;;;;;;17.00;54.87;95633.44;5020269;28;20210;-86
2023/06/04 04:31:14;;;;;;;8.07;4.13;;;;;;;17.09;54.24;95632.16;5031272;28;20288;-87
2023/06/04 04:33:41;;;;;;;4.43;3.50;;;;;;;17.20;53.64;95628.84;5032612;28;20301;-88
2023/06/04 04:36:12;;;;;;;3.85;3.53;;;;;;;17.29;53.47;95635.38;5016585;28;20199;-87
2023/06/04 04:38:39;;;;;;;5.18;4.07;;;;;;;17.42;52.64;95634.41;5011798;28;20250;-87
2023/06/04 04:41:08;;;;;;;4.85;3.67;;;;;;;17.47;52.82;95643.16;5013175;28;20206;-87
2023/06/04 04:43:37;;;;;;;3.42;3.13;;;;;;;17.60;52.30;95642.22;5011288;28;20207;-87
2023/06/04 04:46:05;;;;;;;4.55;3.75;;;;;;;17.59;52.01;95644.03;5012720;28;20213;-87
2023/06/04 04:48:32;;;;;;;4.05;3.40;;;;;;;17.53;51.69;95649.28;5012998;28;20226;-87
2023/06/04 04:50:58;;;;;;;4.25;3.70;;;;;;;17.54;51.63;95651.69;5028649;28;20206;-87
2023/06/04 04:53:25;;;;;;;3.95;3.42;;;;;;;17.43;51.99;95647.22;5052360;28;20210;-87
2023/06/04 04:55:51;;;;;;;6.03;3.65;;;;;;;17.44;52.08;95641.00;5051494;28;20208;-87
2023/06/04 04:58:19;;;;;;;3.63;3.33;;;;;;;17.59;51.77;95646.63;5036307;28;20221;-86
2023/06/04 05:00:47;;;;;;;4.10;3.60;;;;;;;17.65;51.15;95646.81;5019772;28;20714;-88
2023/06/04 05:03:14;;;;;;;4.80;3.53;;;;;;;17.78;51.21;95652.63;5012962;28;20205;-86
2023/06/04 05:05:40;;;;;;;4.40;3.30;;;;;;;17.73;50.93;95651.69;5032016;28;20237;-87
2023/06/04 05:08:07;;;;;;;4.07;3.30;;;;;;;17.90;50.97;95647.47;5032513;28;20222;-87
2023/06/04 05:10:35;;;;;;;3.75;3.28;;;;;;;18.02;50.84;95650.13;5018796;28;20195;-87
2023/06/04 05:13:02;;;;;;;4.68;3.47;;;;;;;18.01;49.08;95651.94;5012639;28;20202;-87
2023/06/04 05:15:30;;;;;;;4.50;3.33;;;;;;;18.04;48.13;95648.09;5013003;28;20206;-87
2023/06/04 05:17:57;;;;;;;4.50;3.00;;;;;;;17.96;48.25;95657.00;5018698;28;20242;-87
2023/06/04 05:20:27;;;;;;;2.90;2.67;;;;;;;17.82;47.64;95663.41;5031968;28;20261;-87
2023/06/04 05:22:55;;;;;;;3.40;2.70;;;;;;;17.86;48.14;95660.16;5030365;28;20205;-86
2023/06/04 05:25:22;;;;;;;5.65;2.97;;;;;;;17.95;48.75;95671.84;5031677;28;20206;-86
2023/06/04 05:27:49;;;;;;;3.78;2.95;;;;;;;18.05;48.08;95667.94;5030569;28;20257;-86
2023/06/04 05:30:15;;;;;;;3.63;2.80;;;;;;;18.24;47.57;95677.31;5024501;28;20207;-86
2023/06/04 05:32:43;;;;;;;3.33;2.80;;;;;;;18.22;46.98;95671.50;5017475;28;20199;-87
2023/06/04 05:35:10;;;;;;;4.93;3.05;;;;;;;18.21;47.74;95667.31;5015250;28;20198;-86
2023/06/04 05:37:40;;;;;;;5.03;3.05;;;;;;;18.38;48.12;95670.88;5015906;28;20219;-86
2023/06/04 05:40:07;;;;;;;5.05;3.05;;;;;;;18.38;48.32;95680.50;5023933;28;20221;-88
2023/06/04 05:42:34;;;;;;;3.42;2.65;;;;;;;18.40;47.55;95683.69;5030756;28;20418;-87
2023/06/04 05:45:00;;;;;;;4.32;3.20;;;;;;;18.38;47.83;95677.91;5034025;28;20308;-86
2023/06/04 05:47:29;;;;;;;3.90;3.08;;;;;;;18.53;47.50;95678.28;5033704;28;20268;-86
2023/06/04 05:49:57;;;;;;;5.50;3.03;;;;;;;18.47;46.83;95684.41;5026698;28;20733;-85
2023/06/04 05:52:24;;;;;;;3.15;2.90;;;;;;;18.47;47.00;95684.41;5012177;28;20199;-86
2023/06/04 05:54:51;;;;;;;4.00;2.90;;;;;;;18.45;47.42;95689.03;5024091;28;20222;-86
2023/06/04 05:57:17;;;;;;;3.45;2.90;;;;;;;18.61;46.96;95691.81;5034977;28;20847;-86
2023/06/04 05:59:44;;;;;;;4.90;2.60;;;;;;;18.67;46.70;95692.72;5033740;28;20222;-87
2023/06/04 06:02:10;;;;;;;3.88;3.40;;;;;;;18.45;46.01;95687.22;5040038;28;20694;-86
2023/06/04 06:04:37;;;;;;;3.67;2.83;;;;;;;18.35;46.92;95686.16;5046532;28;20201;-87
2023/06/04 06:07:05;;;;;;;2.85;2.55;;;;;;;18.44;47.42;95695.28;5047276;28;20695;-86
2023/06/04 06:09:32;;;;;;;3.72;2.70;;;;;;;18.54;45.96;95698.91;5042796;28;20568;-87
2023/06/04 06:11:59;;;;;;;4.07;3.28;;;;;;;18.48;45.89;95693.78;5045759;28;20222;-87
2023/06/04 06:14:25;;;;;;;4.40;3.20;;;;;;;18.47;46.82;95689.63;5045515;28;20264;-86
2023/06/04 06:16:52;;;;;;;3.22;2.90;;;;;;;18.46;46.09;95698.47;5040986;28;20726;-85
2023/06/04 06:19:19;;;;;;;6.25;3.22;;;;;;;18.49;46.51;95690.16;5034500;28;20256;-87
2023/06/04 06:21:45;;;;;;;5.13;2.92;;;;;;;18.58;46.75;95699.28;5033762;28;20223;-86
2023/06/04 06:24:13;;;;;;;4.38;3.08;;;;;;;18.60;46.72;95698.06;5039294;28;20276;-88
2023/06/04 06:26:40;;;;;;;3.05;2.75;;;;;;;18.65;47.49;95702.63;5019937;28;20692;-85
2023/06/04 06:29:06;;;;;;;2.85;2.58;;;;;;;18.72;47.23;95700.69;5051052;28;20193;-88
2023/06/04 06:31:33;;;;;;;3.03;2.72;;;;;;;18.90;47.36;95710.25;5036194;28;20220;-85
2023/06/04 06:33:59;;;;;;;7.63;6.35;;;;;;;19.01;46.43;95704.25;5036231;28;20206;-87
2023/06/04 06:36:26;;;;;;;7.88;5.97;;;;;;;19.08;46.39;95719.78;5035781;28;20212;-87
2023/06/04 06:38:52;;;;;;;3.85;3.30;;;;;;;19.18;45.46;95720.03;5031182;28;20207;-86
2023/06/04 06:41:21;;;;;;;6.22;2.80;;;;;;;19.08;45.54;95719.78;5015792;28;20430;-87
2023/06/04 06:43:47;;;;;;;5.00;3.45;;;;;;;18.88;45.65;95715.69;5016543;28;20638;-86
2023/06/04 06:46:13;;;;;;;3.00;2.70;;;;;;;18.85;46.49;95718.75;5035969;28;20206;-86
2023/06/04 06:48:43;;;;;;;2.80;2.60;;;;;;;18.95;46.21;95715.59;5034892;28;20229;-86
2023/06/04 06:51:09;;;;;;;4.57;2.97;;;;;;;19.16;46.22;95719.47;5041786;28;20202;-87
2023/06/04 06:53:35;;;;;;;6.93;3.35;;;;;;;19.28;47.00;95717.63;5046083;28;20198;-86
2023/06/04 06:56:02;;;;;;;3.88;3.13;;;;;;;19.28;45.89;95722.84;5032308;28;20195;-86
2023/06/04 06:58:29;;;;;;;4.57;3.25;;;;;;;19.24;45.79;95716.53;5018643;28;20222;-87
2023/06/04 07:00:56;;;;;;;3.53;3.00;;;;;;;19.18;45.52;95713.00;5018916;28;20225;-86
2023/06/04 07:03:22;;;;;;;3.92;2.85;;;;;;;19.05;45.17;95712.44;5018538;28;20643;-86
2023/06/04 07:05:49;;;;;;;4.85;3.30;;;;;;;19.20;45.93;95718.78;5036102;28;20206;-86
2023/06/04 07:08:16;;;;;;;4.53;3.50;;;;;;;19.37;45.77;95716.28;5035997;28;20404;-86
2023/06/04 07:10:42;;;;;;;4.78;3.20;;;;;;;19.50;45.34;95718.69;5022402;28;20214;-86
2023/06/04 07:13:08;;;;;;;5.03;2.85;;;;;;;19.50;45.80;95712.66;5025083;28;20257;-86
2023/06/04 07:15:36;;;;;;;4.47;3.03;;;;;;;19.44;45.69;95716.16;5031789;28;20203;-86
2023/06/04 07:18:03;;;;;;;6.43;3.20;;;;;;;19.52;45.47;95714.03;5015101;28;21105;-87
2023/06/04 07:20:33;;;;;;;5.15;2.90;;;;;;;19.67;46.15;95711.72;5029757;28;20352;-87
2023/06/04 07:23:00;;;;;;;3.20;2.70;;;;;;;19.88;45.82;95710.31;5034591;28;20236;-86
2023/06/04 07:25:26;;;;;;;3.50;3.20;;;;;;;19.91;45.12;95706.47;5035204;28;20894;-85
2023/06/04 07:27:53;;;;;;;3.50;3.20;;;;;;;19.98;45.39;95707.13;5031028;28;20242;-85
2023/06/04 07:30:20;;;;;;;5.95;3.30;;;;;;;20.04;45.80;95711.41;5019592;28;20210;-87
2023/06/04 07:32:48;;;;;;;4.95;3.38;;;;;;;20.08;45.01;95717.75;5030648;28;20205;-86
2023/06/04 07:35:15;;;;;;;5.63;3.45;;;;;;;20.26;44.44;95706.34;5031510;28;20198;-89
2023/06/04 07:37:44;;;;;;;4.20;3.38;;;;;;;20.25;45.26;95716.00;5030872;28;20592;-89
2023/06/04 07:40:11;;;;;;;4.90;3.58;;;;;;;20.22;44.72;95716.47;5024203;28;20218;-85
2023/06/04 07:42:40;;;;;;;17.60;15.70;;;;;;;20.47;46.09;95713.53;5011220;28;20298;-87
2023/06/04 07:45:10;;;;;;;11.73;10.52;;;;;;;20.82;44.72;95709.94;5009842;28;20840;-88
2023/06/04 07:47:36;;;;;;;3.88;3.47;;;;;;;20.88;43.72;95704.56;5024183;28;20594;-87
2023/06/04 07:50:05;;;;;;;5.22;3.63;;;;;;;20.75;43.67;95707.50;5028426;28;20194;-88
2023/06/04 07:52:35;;;;;;;4.50;3.72;;;;;;;20.71;43.98;95708.19;5019541;28;20290;-87
2023/06/04 07:55:01;;;;;;;4.60;3.67;;;;;;;20.80;43.83;95709.38;5048353;28;20209;-88
2023/06/04 07:57:28;;;;;;;3.75;3.30;;;;;;;20.90;44.47;95705.13;5030884;28;20221;-88
2023/06/04 07:59:56;;;;;;;5.93;3.83;;;;;;;21.11;44.51;95703.59;5028011;28;20218;-88
2023/06/04 08:02:23;;;;;;;4.28;3.70;;;;;;;21.25;43.94;95707.50;5029112;28;20776;-88
2023/06/04 08:04:49;;;;;;;4.07;3.55;;;;;;;21.38;44.61;95701.91;5027051;28;20853;-88
2023/06/04 08:07:17;;;;;;;4.60;3.22;;;;;;;21.62;44.01;95706.94;5028308;28;20229;-87
2023/06/04 08:09:45;;;;;;;4.32;3.50;;;;;;;21.53;42.84;95706.59;5019478;28;20682;-88
2023/06/04 08:12:11;;;;;;;4.45;3.20;;;;;;;21.65;42.94;95698.59;5022628;28;20201;-88
2023/06/04 08:14:38;;;;;;;3.38;3.08;;;;;;;21.78;43.06;95698.25;5012185;28;20206;-88
2023/06/04 08:17:05;;;;;;;4.72;3.25;;;;;;;21.80;42.59;95704.03;5028521;28;20218;-88
2023/06/04 08:19:31;;;;;;;4.57;3.50;;;;;;;21.94;42.48;95701.84;5028292;28;20225;-87
2023/06/04 08:21:57;;;;;;;8.65;3.75;;;;;;;22.00;42.13;95706.13;5030518;28;20198;-88
2023/06/04 08:24:25;;;;;;;6.35;3.50;;;;;;;22.17;41.92;95716.56;5030976;28;20201;-88
2023/06/04 08:26:52;;;;;;;4.78;4.28;;;;;;;22.19;42.30;95706.59;5027779;28;20230;-89
2023/06/04 08:29:18;;;;;;;9.10;6.60;;;;;;;22.26;42.38;95709.84;5028921;28;20212;-88
2023/06/04 08:31:45;;;;;;;6.50;4.63;;;;;;;22.41;42.10;95702.13;5008580;28;20198;-89
2023/06/04 08:34:11;;;;;;;7.07;5.65;;;;;;;22.51;40.99;95706.69;5008848;28;20757;-89
2023/06/04 08:36:38;;;;;;;8.85;8.02;;;;;;;22.61;40.89;95702.31;5008632;28;20202;-88
2023/06/04 08:39:05;;;;;;;7.05;3.38;;;;;;;22.42;41.14;95705.53;5008232;28;20191;-87
2023/06/04 08:41:41;;;;;;;3.95;3.20;;;;;;;22.65;41.48;95708.66;5009288;28;21009;-88
2023/06/04 08:44:08;;;;;;;4.05;2.90;;;;;;;22.97;41.15;95707.88;5025162;28;20602;-89
2023/06/04 08:46:40;;;;;;;4.07;2.83;;;;;;;23.04;39.46;95704.03;5028499;28;20293;-88
2023/06/04 08:49:17;;;;;;;5.85;3.08;;;;;;;23.11;39.75;95706.41;4958022;28;20237;-89
2023/06/04 08:51:44;;;;;;;4.53;3.78;;;;;;;23.20;39.96;95704.13;5017088;28;20197;-88
2023/06/04 08:54:12;;;;;;;6.65;3.40;;;;;;;23.28;39.22;95701.03;5008421;28;20203;-89
2023/06/04 08:56:40;;;;;;;4.75;3.40;;;;;;;23.34;38.90;95705.25;5008832;28;20252;-88
2023/06/04 08:59:11;;;;;;;3.58;3.17;;;;;;;23.27;37.99;95705.50;5009649;28;20211;-88
2023/06/04 09:01:38;;;;;;;3.97;3.22;;;;;;;23.26;38.57;95708.38;5008832;28;20238;-88
2023/06/04 09:04:08;;;;;;;4.00;2.67;;;;;;;23.24;38.19;95706.00;5015239;28;20707;-88
2023/06/04 09:06:36;;;;;;;4.63;3.15;;;;;;;23.44;38.64;95710.59;5029400;28;20210;-88
2023/06/04 09:09:12;;;;;;;6.80;3.10;;;;;;;23.64;38.37;95715.19;5028862;28;20836;-88
2023/06/04 09:11:45;;;;;;;3.30;2.95;;;;;;;23.77;38.31;95714.72;5028189;28;20229;-89
2023/06/04 09:14:16;;;;;;;5.65;3.15;;;;;;;23.89;37.57;95707.41;5028836;28;20194;-87
2023/06/04 09:16:46;;;;;;;3.63;2.92;;;;;;;24.08;37.79;95703.28;5011017;28;20245;-88
2023/06/04 09:19:28;;;;;;;4.05;3.33;;;;;;;24.32;37.22;95716.78;5011354;28;20202;-89
2023/06/04 09:21:56;;;;;;;4.18;3.05;;;;;;;24.10;37.04;95714.31;5027782;28;20224;-89
2023/06/04 09:24:24;;;;;;;4.07;3.38;;;;;;;24.24;38.10;95709.41;5029058;28;20924;-88
2023/06/04 09:26:52;;;;;;;4.32;3.03;;;;;;;24.25;37.24;95712.81;5030361;28;20233;-89
2023/06/04 09:29:19;;;;;;;5.03;3.20;;;;;;;24.31;37.45;95720.47;5028057;28;20656;-90
2023/06/04 09:31:47;;;;;;;7.38;3.70;;;;;;;24.11;36.45;95715.91;5010315;28;20293;-88
2023/06/04 09:34:18;;;;;;;3.70;3.20;;;;;;;24.18;36.69;95714.88;5009078;28;20202;-88
2023/06/04 09:36:48;;;;;;;6.18;3.72;;;;;;;24.24;37.52;95716.53;5009081;28;20687;-88
2023/06/04 09:39:26;;;;;;;4.40;2.92;;;;;;;24.33;36.84;95704.44;5015959;28;20225;-88
2023/06/04 09:42:09;;;;;;;3.40;3.10;;;;;;;24.18;36.21;95712.25;5028693;28;20225;-87
2023/06/04 09:44:50;;;;;;;7.00;3.40;;;;;;;24.17;37.15;95700.94;4986065;28;20790;-88
2023/06/04 09:47:25;;;;;;;2.97;2.55;;;;;;;24.27;36.98;95698.34;5008313;28;20257;-87
2023/06/04 09:49:54;;;;;;;4.47;3.03;;;;;;;24.35;36.15;95700.50;5009340;28;20228;-88
2023/06/04 09:52:39;;;;;;;3.13;2.80;;;;;;;24.54;36.90;95689.47;5031424;28;20202;-88
2023/06/04 09:55:22;;;;;;;4.38;3.05;;;;;;;24.83;36.58;95695.00;5014680;28;20234;-88
2023/06/04 10:00:35;;;;;;;5.90;3.13;;;;;;;24.55;34.70;95705.00;5015252;28;20297;-89
2023/06/04 10:03:27;;;;;;;3.35;3.05;;;;;;;24.65;35.08;95693.69;5026591;28;20281;-88
2023/06/04 10:09:31;;;;;;;5.55;3.28;;;;;;;25.02;33.84;95690.81;5024461;28;20708;-89
2023/06/04 10:15:29;;;;;;;4.38;2.80;;;;;;;24.83;34.86;95695.78;5008699;28;20201;-90
2023/06/04 10:22:11;;;;;;;3.92;3.08;;;;;;;25.38;34.87;95683.66;4954051;28;20233;-90
2023/06/04 10:31:55;;;;;;;5.05;3.45;;;;;;;25.84;32.65;95691.47;4956953;28;20734;-91
2023/06/04 10:38:22;;;;;;;8.68;5.00;;;;;;;25.73;32.44;95682.81;4995019;28;20231;-90
2023/06/04 10:50:51;;;;;;;3.50;3.30;;;;;;;26.06;31.58;95679.50;5068119;23;20229;-90
2023/06/04 10:59:41;;;;;;;3.92;3.40;;;;;;;26.63;31.71;95678.13;5025420;28;20217;-90
2023/06/04 11:15:29;;;;;;;5.82;3.35;;;;;;;26.31;31.63;95665.41;4922930;28;20236;-91
2023/06/04 11:18:03;;;;;;;3.42;2.85;;;;;;;26.28;31.24;95683.59;4965410;28;20224;-91
2023/06/04 11:21:28;;;;;;;5.10;3.25;;;;;;;26.26;31.02;95675.16;4999749;28;20566;-91
2023/06/04 11:27:27;;;;;;;3.50;3.20;;;;;;;26.14;30.98;95672.88;4992235;28;20320;-87
2023/06/04 11:29:54;;;;;;;7.78;4.43;;;;;;;25.89;31.39;95676.41;5010071;28;20217;-88
2023/06/04 11:32:37;;;;;;;3.28;2.97;;;;;;;25.80;32.18;95670.09;5008864;28;20203;-88
2023/06/04 11:35:25;;;;;;;;;;;;;;;;;;;;;
2023/06/04 11:38:12;;;;;;;3.65;3.35;;;;;;;25.72;31.41;95668.03;5027077;28;20229;-87
2023/06/04 11:40:39;;;;;;;9.35;7.88;;;;;;;25.69;32.22;95658.03;4991993;28;20211;-89
2023/06/04 11:49:01;;;;;;;3.40;3.10;;;;;;;26.38;31.03;95663.22;4994618;28;20438;-87
2023/06/04 11:51:45;;;;;;;4.45;3.00;;;;;;;26.62;30.55;95659.91;5008499;28;20213;-85
2023/06/04 11:54:12;;;;;;;4.55;3.22;;;;;;;26.55;31.43;95654.16;5011703;28;20210;-91
2023/06/04 11:56:53;;;;;;;4.00;3.00;;;;;;;26.34;30.63;95656.94;5011223;28;20210;-90
2023/06/04 11:59:50;;;;;;;3.42;3.13;;;;;;;26.01;31.59;95652.31;5011995;28;20218;-88
2023/06/04 12:02:25;;;;;;;3.63;2.95;;;;;;;26.19;30.66;95664.09;5011280;28;20261;-90
2023/06/04 12:08:38;;;;;;;4.82;3.30;;;;;;;26.23;31.05;95651.94;5029797;28;20218;-88
2023/06/04 12:11:30;;;;;;;;;;;;;;;;;;;;;
2023/06/04 12:14:15;;;;;;;4.05;2.92;;;;;;;26.06;32.22;95655.75;4992319;28;20207;-89
2023/06/04 12:17:14;;;;;;;3.70;3.13;;;;;;;25.90;30.99;95651.59;4990354;28;20707;-89
2023/06/04 12:22:52;;;;;;;3.35;3.03;;;;;;;26.11;30.98;95653.06;5008930;28;20254;-86
2023/06/04 12:25:26;;;;;;;5.35;3.20;;;;;;;26.23;30.59;95650.09;4990657;28;20219;-86
2023/06/04 12:27:54;;;;;;;3.50;3.20;;;;;;;26.52;30.56;95654.72;4998936;28;20271;-86
2023/06/04 12:30:24;;;;;;;3.38;3.10;;;;;;;26.82;29.68;95647.31;5009700;28;20206;-87
2023/06/04 12:32:52;;;;;;;3.67;3.30;;;;;;;26.89;29.93;95641.72;5010218;28;20207;-86
2023/06/04 12:35:23;;;;;;;3.60;3.30;;;;;;;26.42;29.28;95642.34;5010191;28;20312;-87
2023/06/04 12:37:53;;;;;;;4.70;3.55;;;;;;;26.24;29.36;95649.03;5009541;28;20293;-87
2023/06/04 12:43:08;;;;;;;3.88;2.90;;;;;;;26.38;29.25;95646.59;5009332;28;20607;-86
2023/06/04 12:45:34;;;;;;;8.02;6.80;;;;;;;26.51;30.02;95651.28;5010117;28;20195;-86
2023/06/04 12:48:11;;;;;;;9.82;8.93;;;;;;;26.74;30.00;95634.72;5009065;28;20225;-87
2023/06/04 12:50:38;;;;;;;4.13;3.58;;;;;;;26.75;28.61;95630.19;5009778;28;20208;-87
2023/06/04 12:53:06;;;;;;;5.30;3.55;;;;;;;26.73;29.35;95629.72;5009907;28;20609;-87
2023/06/04 12:55:50;;;;;;;3.20;2.90;;;;;;;26.43;28.86;95633.38;5008920;28;20680;-87
2023/06/04 12:58:17;;;;;;;4.05;3.50;;;;;;;26.17;29.93;95629.31;5009584;28;20241;-86
2023/06/04 13:00:43;;;;;;;4.00;3.60;;;;;;;26.00;29.89;95634.91;5009881;28;20230;-85
2023/06/04 13:03:17;;;;;;;4.45;3.90;;;;;;;26.02;30.31;95630.94;5010463;28;20254;-86